Time;durP1;ratioP1;P1;durP2;ratioP2;P2;SDS_P1;SDS_P2;PMS_P1;PMS_P2;Temp;Humidity;BMP_temperature;BMP_pressure;BME280_temperature;BME280_humidity;BME280_pressure;Samples;Min_cycle;Max_cycle;Signal;HPM_P1;HPM_P2
2021/10/27 00:00:16;;;;;;;26.10;17.50;;;;;;;;;;2088864;28;20156;-42
2021/10/27 00:01:17;;;;;;;28.05;16.48;;;;;;;;;;2089702;28;20100;-42
2021/10/27 00:02:18;;;;;;;26.33;17.60;;;;;;;;;;2086993;28;20410;-43
2021/10/27 00:03:20;;;;;;;26.37;16.90;;;;;;;;;;2087503;28;20371;-43
2021/10/27 00:04:21;;;;;;;26.35;17.02;;;;;;;;;;2088112;28;20353;-43
2021/10/27 00:05:22;;;;;;;27.52;17.55;;;;;;;;;;2087371;28;20409;-43
2021/10/27 00:06:23;;;;;;;27.40;16.77;;;;;;;;;;2089008;28;20149;-43
2021/10/27 00:07:25;;;;;;;27.60;18.13;;;;;;;;;;2087985;28;20057;-42
2021/10/27 00:08:26;;;;;;;27.75;18.38;;;;;;;;;;2087563;28;20087;-42
2021/10/27 00:09:27;;;;;;;25.90;17.27;;;;;;;;;;2088975;28;20487;-43
2021/10/27 00:10:28;;;;;;;27.40;17.70;;;;;;;;;;2087379;28;20136;-43
2021/10/27 00:11:29;;;;;;;24.85;17.95;;;;;;;;;;2088085;28;20841;-42
2021/10/27 00:12:30;;;;;;;28.92;17.50;;;;;;;;;;2088876;28;20049;-42
2021/10/27 00:13:32;;;;;;;23.80;17.50;;;;;;;;;;2086662;28;20570;-43
2021/10/27 00:14:33;;;;;;;27.67;16.85;;;;;;;;;;2088657;28;20745;-42
2021/10/27 00:15:34;;;;;;;26.55;17.83;;;;;;;;;;2088947;28;20053;-43
2021/10/27 00:16:35;;;;;;;24.10;17.08;;;;;;;;;;2087710;28;20512;-42
2021/10/27 00:17:37;;;;;;;25.08;17.80;;;;;;;;;;2087465;28;20088;-43
2021/10/27 00:18:38;;;;;;;26.92;17.60;;;;;;;;;;2088744;28;20550;-43
2021/10/27 00:19:40;;;;;;;25.20;16.70;;;;;;;;;;2086652;28;20184;-42
2021/10/27 00:20:41;;;;;;;26.48;17.40;;;;;;;;;;2088787;28;20056;-43
2021/10/27 00:21:42;;;;;;;25.33;17.70;;;;;;;;;;2088773;28;20045;-42
2021/10/27 00:22:43;;;;;;;29.85;17.73;;;;;;;;;;2086553;28;20129;-43
2021/10/27 00:23:44;;;;;;;33.08;18.67;;;;;;;;;;2088852;28;20128;-43
2021/10/27 00:24:45;;;;;;;28.38;17.65;;;;;;;;;;2088815;28;20410;-42
2021/10/27 00:25:46;;;;;;;25.67;17.80;;;;;;;;;;2087713;28;20045;-43
2021/10/27 00:26:47;;;;;;;24.70;17.17;;;;;;;;;;2090170;28;20145;-42
2021/10/27 00:27:48;;;;;;;30.17;18.02;;;;;;;;;;2089827;28;20090;-43
2021/10/27 00:28:49;;;;;;;28.02;16.98;;;;;;;;;;2089530;28;20122;-42
2021/10/27 00:29:50;;;;;;;30.90;19.85;;;;;;;;;;2090291;28;20052;-42
2021/10/27 00:30:51;;;;;;;30.70;18.67;;;;;;;;;;2089759;28;20040;-42
2021/10/27 00:31:52;;;;;;;27.75;18.20;;;;;;;;;;2088331;28;20697;-42
2021/10/27 00:32:54;;;;;;;31.58;17.95;;;;;;;;;;2090216;28;20293;-43
2021/10/27 00:33:56;;;;;;;25.17;17.80;;;;;;;;;;2091003;28;20046;-42
2021/10/27 00:34:56;;;;;;;30.35;18.15;;;;;;;;;;2088334;28;20585;-42
2021/10/27 00:35:58;;;;;;;33.00;18.95;;;;;;;;;;2090343;28;20102;-43
2021/10/27 00:36:58;;;;;;;29.08;18.58;;;;;;;;;;2089198;28;20124;-42
2021/10/27 00:38:00;;;;;;;29.77;18.98;;;;;;;;;;2087522;28;20048;-42
2021/10/27 00:39:00;;;;;;;27.25;17.40;;;;;;;;;;2090199;28;20099;-42
2021/10/27 00:40:02;;;;;;;29.33;18.43;;;;;;;;;;2090731;28;20302;-43
2021/10/27 00:41:06;;;;;;;29.20;18.95;;;;;;;;;;2088708;28;20110;-42
2021/10/27 00:42:07;;;;;;;30.30;18.83;;;;;;;;;;2089987;28;20586;-43
2021/10/27 00:43:08;;;;;;;27.60;18.38;;;;;;;;;;2088495;28;20393;-42
2021/10/27 00:44:16;;;;;;;29.23;19.10;;;;;;;;;;2089479;28;20045;-43
2021/10/27 00:45:17;;;;;;;33.17;19.25;;;;;;;;;;2090025;28;20545;-42
2021/10/27 00:46:19;;;;;;;26.10;17.33;;;;;;;;;;2090051;28;20052;-42
2021/10/27 00:47:20;;;;;;;27.00;18.40;;;;;;;;;;2089224;28;20558;-42
2021/10/27 00:48:21;;;;;;;28.05;18.15;;;;;;;;;;2090091;28;20124;-42
2021/10/27 00:49:23;;;;;;;29.90;18.85;;;;;;;;;;2087781;28;20045;-42
2021/10/27 00:50:24;;;;;;;30.05;19.02;;;;;;;;;;2081923;28;20075;-42
2021/10/27 00:51:25;;;;;;;32.67;19.08;;;;;;;;;;2081871;28;20046;-42
2021/10/27 00:52:26;;;;;;;30.88;18.77;;;;;;;;;;2088383;28;20048;-42
2021/10/27 00:53:27;;;;;;;29.23;19.42;;;;;;;;;;2090208;28;20045;-42
2021/10/27 00:54:28;;;;;;;27.87;19.07;;;;;;;;;;2090039;28;20044;-42
2021/10/27 00:55:29;;;;;;;37.10;18.77;;;;;;;;;;2086389;28;20116;-43
2021/10/27 00:56:32;;;;;;;27.73;18.63;;;;;;;;;;2090265;28;20127;-42
2021/10/27 00:57:33;;;;;;;31.48;19.17;;;;;;;;;;2090134;28;20289;-42
2021/10/27 00:58:34;;;;;;;33.42;20.17;;;;;;;;;;2088515;28;20136;-42
2021/10/27 00:59:38;;;;;;;33.97;20.10;;;;;;;;;;2090120;28;20055;-43
2021/10/27 01:00:39;;;;;;;28.45;19.08;;;;;;;;;;2089430;28;20389;-42
2021/10/27 01:01:40;;;;;;;30.08;19.75;;;;;;;;;;2088144;28;20512;-42
2021/10/27 01:02:41;;;;;;;36.83;20.77;;;;;;;;;;2089875;28;20521;-42
2021/10/27 01:03:42;;;;;;;31.63;20.85;;;;;;;;;;2087655;28;20094;-42
2021/10/27 01:04:45;;;;;;;28.25;18.23;;;;;;;;;;2088648;28;20130;-42
2021/10/27 01:05:46;;;;;;;33.85;19.73;;;;;;;;;;2090089;28;20490;-42
2021/10/27 01:06:48;;;;;;;31.73;19.48;;;;;;;;;;2088780;28;20037;-43
2021/10/27 01:07:49;;;;;;;26.95;20.02;;;;;;;;;;2088967;28;20097;-43
2021/10/27 01:08:50;;;;;;;29.15;19.58;;;;;;;;;;2089866;28;20406;-42
2021/10/27 01:09:51;;;;;;;31.73;20.60;;;;;;;;;;2088162;28;20132;-42
2021/10/27 01:10:52;;;;;;;31.75;19.13;;;;;;;;;;2089500;28;20047;-42
2021/10/27 01:11:53;;;;;;;31.33;19.52;;;;;;;;;;2089988;28;20120;-42
2021/10/27 01:12:54;;;;;;;33.20;20.90;;;;;;;;;;2087856;28;20388;-42
2021/10/27 01:13:55;;;;;;;30.27;19.67;;;;;;;;;;2089825;28;20075;-42
2021/10/27 01:14:56;;;;;;;31.17;20.60;;;;;;;;;;2090044;28;20406;-42
2021/10/27 01:15:58;;;;;;;29.02;19.27;;;;;;;;;;2090121;28;20049;-42
2021/10/27 01:16:59;;;;;;;32.55;19.33;;;;;;;;;;2088968;28;20127;-42
2021/10/27 01:18:00;;;;;;;31.23;20.10;;;;;;;;;;2089824;28;20106;-42
2021/10/27 01:19:01;;;;;;;33.90;20.03;;;;;;;;;;2089307;28;20049;-42
2021/10/27 01:20:03;;;;;;;32.90;19.73;;;;;;;;;;2089611;28;20175;-42
2021/10/27 01:21:04;;;;;;;31.58;20.73;;;;;;;;;;2090004;28;20048;-42
2021/10/27 01:22:05;;;;;;;29.42;19.67;;;;;;;;;;2088620;28;20413;-42
2021/10/27 01:23:06;;;;;;;31.58;20.33;;;;;;;;;;2090020;28;20049;-42
2021/10/27 01:24:08;;;;;;;33.30;19.33;;;;;;;;;;2089917;28;20077;-42
2021/10/27 01:25:10;;;;;;;28.90;18.15;;;;;;;;;;2089045;28;20159;-41
2021/10/27 01:26:11;;;;;;;30.75;19.42;;;;;;;;;;2089893;28;20136;-42
2021/10/27 01:27:13;;;;;;;27.25;19.08;;;;;;;;;;2090047;28;20184;-42
2021/10/27 01:28:14;;;;;;;27.35;17.65;;;;;;;;;;2088342;28;20605;-42
2021/10/27 01:29:15;;;;;;;31.27;19.75;;;;;;;;;;2089559;28;20049;-42
2021/10/27 01:30:17;;;;;;;26.42;19.10;;;;;;;;;;2089294;28;20155;-42
2021/10/27 01:31:18;;;;;;;30.15;19.00;;;;;;;;;;2087970;28;20171;-42
2021/10/27 01:32:20;;;;;;;28.77;19.17;;;;;;;;;;2089811;28;20053;-42
2021/10/27 01:33:21;;;;;;;32.05;19.67;;;;;;;;;;2088769;28;20049;-42
2021/10/27 01:34:22;;;;;;;33.22;19.55;;;;;;;;;;2088393;28;20165;-42
2021/10/27 01:35:24;;;;;;;29.13;19.98;;;;;;;;;;2089822;28;20494;-42
2021/10/27 01:36:25;;;;;;;32.97;20.80;;;;;;;;;;2088421;28;20442;-42
2021/10/27 01:37:26;;;;;;;26.67;18.77;;;;;;;;;;2088248;28;20056;-42
2021/10/27 01:38:27;;;;;;;35.45;19.42;;;;;;;;;;2089651;28;20136;-42
2021/10/27 01:39:29;;;;;;;28.65;18.98;;;;;;;;;;2088335;28;20465;-42
2021/10/27 01:40:30;;;;;;;28.48;19.40;;;;;;;;;;2089038;28;20090;-42
2021/10/27 01:41:31;;;;;;;30.70;19.27;;;;;;;;;;2089921;28;20461;-42
2021/10/27 01:42:32;;;;;;;33.47;19.30;;;;;;;;;;2089862;28;20405;-42
2021/10/27 01:43:45;;;;;;;33.40;20.88;;;;;;;;;;2088494;28;20045;-42
2021/10/27 01:44:46;;;;;;;30.80;20.13;;;;;;;;;;2089713;28;20139;-42
2021/10/27 01:45:48;;;;;;;29.73;19.15;;;;;;;;;;2087711;28;20041;-42
2021/10/27 01:46:49;;;;;;;33.33;19.73;;;;;;;;;;2089682;28;20090;-42
2021/10/27 01:47:50;;;;;;;29.30;20.63;;;;;;;;;;2090524;28;20041;-42
2021/10/27 01:48:51;;;;;;;33.45;20.02;;;;;;;;;;2087970;28;20044;-42
2021/10/27 01:49:52;;;;;;;31.63;20.33;;;;;;;;;;2089871;28;20049;-42
2021/10/27 01:50:53;;;;;;;28.23;18.65;;;;;;;;;;2088947;28;20183;-43
2021/10/27 01:51:55;;;;;;;32.55;21.23;;;;;;;;;;2086867;28;20037;-42
2021/10/27 01:52:56;;;;;;;29.15;19.48;;;;;;;;;;2089685;28;20132;-42
2021/10/27 01:53:58;;;;;;;33.58;19.77;;;;;;;;;;2088694;28;20478;-42
2021/10/27 01:54:58;;;;;;;30.73;20.52;;;;;;;;;;2088236;28;20128;-42
2021/10/27 01:55:59;;;;;;;28.98;20.92;;;;;;;;;;2089571;28;20186;-42
2021/10/27 01:57:01;;;;;;;28.98;20.20;;;;;;;;;;2088176;28;20482;-42
2021/10/27 01:58:02;;;;;;;28.05;19.42;;;;;;;;;;2088831;28;20097;-42
2021/10/27 01:59:03;;;;;;;28.67;20.08;;;;;;;;;;2089588;28;20132;-42
2021/10/27 02:00:05;;;;;;;30.45;20.10;;;;;;;;;;2087434;28;20045;-42
2021/10/27 02:01:06;;;;;;;29.48;19.55;;;;;;;;;;2089310;28;20573;-42
2021/10/27 02:02:08;;;;;;;28.40;20.05;;;;;;;;;;2089606;28;20053;-43
2021/10/27 02:03:09;;;;;;;27.20;18.95;;;;;;;;;;2086027;28;20048;-42
2021/10/27 02:04:10;;;;;;;28.50;19.13;;;;;;;;;;2088526;28;20402;-42
2021/10/27 02:05:11;;;;;;;28.02;19.55;;;;;;;;;;2089535;28;20076;-42
2021/10/27 02:06:13;;;;;;;27.70;19.63;;;;;;;;;;2089090;28;20068;-42
2021/10/27 02:07:14;;;;;;;;;;;;;;;;;;2089778;28;20049;-42
2021/10/27 02:08:15;;;;;;;29.00;18.88;;;;;;;;;;2089671;28;19964;-42
2021/10/27 02:09:16;;;;;;;29.02;19.17;;;;;;;;;;2088503;28;20045;-42
2021/10/27 02:10:17;;;;;;;27.25;18.85;;;;;;;;;;2089557;28;20056;-42
2021/10/27 02:11:18;;;;;;;26.00;18.30;;;;;;;;;;2089537;28;20084;-42
2021/10/27 02:12:26;;;;;;;29.15;19.30;;;;;;;;;;2087699;28;20053;-42
2021/10/27 02:13:27;;;;;;;30.83;19.90;;;;;;;;;;2089486;28;20123;-42
2021/10/27 02:14:28;;;;;;;31.42;19.73;;;;;;;;;;2089053;28;20052;-42
2021/10/27 02:15:29;;;;;;;29.73;19.75;;;;;;;;;;2086587;28;20049;-42
2021/10/27 02:16:30;;;;;;;27.83;19.45;;;;;;;;;;2089513;28;20041;-42
2021/10/27 02:17:31;;;;;;;28.13;19.23;;;;;;;;;;2088804;28;20564;-42
2021/10/27 02:18:32;;;;;;;30.77;20.60;;;;;;;;;;2087620;28;20091;-42
2021/10/27 02:19:33;;;;;;;29.23;18.52;;;;;;;;;;2089599;28;20127;-42
2021/10/27 02:20:34;;;;;;;27.63;19.67;;;;;;;;;;2088539;28;20049;-42
2021/10/27 02:21:36;;;;;;;31.67;19.80;;;;;;;;;;2088023;28;20127;-42
2021/10/27 02:22:37;;;;;;;28.42;20.27;;;;;;;;;;2089467;28;20377;-42
2021/10/27 02:23:38;;;;;;;31.98;19.05;;;;;;;;;;2088569;28;20088;-42
2021/10/27 02:24:39;;;;;;;26.80;17.73;;;;;;;;;;2088079;28;20051;-42
2021/10/27 02:25:40;;;;;;;33.67;21.13;;;;;;;;;;2089577;28;20069;-42
2021/10/27 02:26:42;;;;;;;27.90;18.38;;;;;;;;;;2087906;28;20053;-42
2021/10/27 02:27:43;;;;;;;28.98;19.77;;;;;;;;;;2088869;28;20281;-42
2021/10/27 02:28:44;;;;;;;30.23;18.17;;;;;;;;;;2089460;28;20044;-42
2021/10/27 02:29:45;;;;;;;27.27;19.25;;;;;;;;;;2087009;28;20504;-42
2021/10/27 02:30:46;;;;;;;30.60;19.93;;;;;;;;;;2089592;28;20056;-42
2021/10/27 02:31:47;;;;;;;26.88;18.98;;;;;;;;;;2089234;28;20136;-42
2021/10/27 02:32:49;;;;;;;26.63;18.98;;;;;;;;;;2088511;28;20083;-42
2021/10/27 02:33:50;;;;;;;28.70;19.27;;;;;;;;;;2089359;28;20053;-42
2021/10/27 02:34:52;;;;;;;31.85;20.02;;;;;;;;;;2089365;28;20040;-42
2021/10/27 02:35:52;;;;;;;28.02;19.10;;;;;;;;;;2088429;28;20136;-42
2021/10/27 02:37:15;;;;;;;30.20;19.70;;;;;;;;;;2089388;28;20288;-42
2021/10/27 02:38:16;;;;;;;27.35;19.83;;;;;;;;;;2089773;28;20132;-43
2021/10/27 02:39:17;;;;;;;31.73;19.80;;;;;;;;;;2087877;28;20045;-43
2021/10/27 02:40:18;;;;;;;29.15;18.90;;;;;;;;;;2089520;28;20072;-42
2021/10/27 02:41:19;;;;;;;28.20;19.92;;;;;;;;;;2087165;28;20041;-42
2021/10/27 02:42:20;;;;;;;26.73;19.52;;;;;;;;;;2088094;28;20673;-42
2021/10/27 02:43:21;;;;;;;27.73;20.25;;;;;;;;;;2089487;28;20048;-42
2021/10/27 02:44:22;;;;;;;30.48;19.92;;;;;;;;;;2087159;28;20130;-42
2021/10/27 02:45:23;;;;;;;30.98;20.10;;;;;;;;;;2089120;28;20144;-42
2021/10/27 02:46:24;;;;;;;27.92;20.08;;;;;;;;;;2089295;28;20140;-42
2021/10/27 02:47:26;;;;;;;31.90;21.02;;;;;;;;;;2088709;28;20055;-43
2021/10/27 02:48:26;;;;;;;33.37;20.83;;;;;;;;;;2088088;28;20045;-42
2021/10/27 02:49:27;;;;;;;29.92;20.05;;;;;;;;;;2089338;28;20747;-42
2021/10/27 02:50:28;;;;;;;26.30;19.52;;;;;;;;;;2087083;28;20448;-42
2021/10/27 02:51:30;;;;;;;26.77;19.15;;;;;;;;;;2081227;28;20053;-42
2021/10/27 02:52:31;;;;;;;26.90;20.15;;;;;;;;;;2080955;28;20041;-43
2021/10/27 02:53:33;;;;;;;29.08;18.92;;;;;;;;;;2086216;28;20087;-42
2021/10/27 02:54:34;;;;;;;26.90;19.45;;;;;;;;;;2089325;28;20041;-42
2021/10/27 02:55:35;;;;;;;26.50;19.25;;;;;;;;;;2089389;28;20114;-42
2021/10/27 02:56:36;;;;;;;27.30;19.92;;;;;;;;;;2086298;28;20045;-42
2021/10/27 02:57:38;;;;;;;27.52;18.65;;;;;;;;;;2089232;28;20056;-42
2021/10/27 02:58:39;;;;;;;26.30;20.20;;;;;;;;;;2089428;28;20063;-42
2021/10/27 02:59:41;;;;;;;28.50;19.48;;;;;;;;;;2087715;28;20506;-42
2021/10/27 03:00:42;;;;;;;27.38;19.95;;;;;;;;;;2089170;28;20053;-42
2021/10/27 03:01:43;;;;;;;25.98;19.77;;;;;;;;;;2090126;28;20045;-42
2021/10/27 03:02:44;;;;;;;27.52;18.95;;;;;;;;;;2087493;28;20041;-42
2021/10/27 03:03:46;;;;;;;24.25;17.30;;;;;;;;;;2087832;28;20044;-42
2021/10/27 03:04:47;;;;;;;27.73;18.77;;;;;;;;;;2089592;28;20470;-42
2021/10/27 03:05:48;;;;;;;31.55;19.45;;;;;;;;;;2087679;28;20045;-42
2021/10/27 03:06:49;;;;;;;29.63;18.80;;;;;;;;;;2089295;28;20441;-42
2021/10/27 03:07:51;;;;;;;29.27;18.93;;;;;;;;;;2089607;28;20105;-42
2021/10/27 03:08:52;;;;;;;31.38;19.85;;;;;;;;;;2087793;28;20404;-42
2021/10/27 03:09:53;;;;;;;25.35;17.15;;;;;;;;;;2089226;28;20477;-42
2021/10/27 03:10:54;;;;;;;31.27;19.67;;;;;;;;;;2087896;28;20056;-42
2021/10/27 03:11:56;;;;;;;27.15;18.42;;;;;;;;;;2088280;28;20091;-42
2021/10/27 03:12:57;;;;;;;26.83;19.55;;;;;;;;;;2089275;28;20128;-42
2021/10/27 03:13:58;;;;;;;27.08;18.92;;;;;;;;;;2088403;28;20075;-42
2021/10/27 03:14:59;;;;;;;28.63;19.73;;;;;;;;;;2089133;28;20045;-42
2021/10/27 03:16:00;;;;;;;25.40;19.80;;;;;;;;;;2089313;28;20095;-42
2021/10/27 03:17:01;;;;;;;28.42;19.58;;;;;;;;;;2088329;28;20128;-42
2021/10/27 03:18:03;;;;;;;29.40;20.10;;;;;;;;;;2089062;28;20132;-42
2021/10/27 03:19:04;;;;;;;30.70;18.83;;;;;;;;;;2088466;28;20586;-42
2021/10/27 03:20:06;;;;;;;31.90;19.83;;;;;;;;;;2087488;28;20056;-42
2021/10/27 03:21:07;;;;;;;29.85;20.25;;;;;;;;;;2089099;28;20159;-42
2021/10/27 03:22:08;;;;;;;26.92;19.40;;;;;;;;;;2089568;28;20123;-42
2021/10/27 03:23:10;;;;;;;26.92;17.95;;;;;;;;;;2087890;28;20049;-41
2021/10/27 03:24:11;;;;;;;28.42;20.83;;;;;;;;;;2089301;28;20061;-42
2021/10/27 03:25:12;;;;;;;31.52;20.15;;;;;;;;;;2088997;28;20072;-42
2021/10/27 03:26:13;;;;;;;29.05;20.52;;;;;;;;;;2088275;28;20047;-42
2021/10/27 03:27:14;;;;;;;29.30;20.27;;;;;;;;;;2089448;28;20110;-46
2021/10/27 03:28:15;;;;;;;26.10;19.52;;;;;;;;;;2086779;28;20279;-47
2021/10/27 03:29:16;;;;;;;28.17;19.83;;;;;;;;;;2081046;28;20133;-46
2021/10/27 03:30:17;;;;;;;27.35;19.55;;;;;;;;;;2080812;28;20053;-47
2021/10/27 03:31:18;;;;;;;24.02;17.55;;;;;;;;;;2085903;28;20223;-47
2021/10/27 03:32:19;;;;;;;28.45;18.40;;;;;;;;;;2088921;28;20053;-48
2021/10/27 03:33:20;;;;;;;27.05;18.67;;;;;;;;;;2089042;28;20563;-47
2021/10/27 03:34:21;;;;;;;24.33;16.85;;;;;;;;;;2086835;28;20060;-46
2021/10/27 03:35:22;;;;;;;29.05;19.77;;;;;;;;;;2089060;28;20135;-48
2021/10/27 03:36:24;;;;;;;29.67;19.80;;;;;;;;;;2088711;28;20127;-50
2021/10/27 03:37:24;;;;;;;25.90;19.15;;;;;;;;;;2087044;28;20506;-47
2021/10/27 03:38:26;;;;;;;28.05;20.20;;;;;;;;;;2089096;28;20099;-48
2021/10/27 03:39:27;;;;;;;;;;;;;;;;;;2088831;28;20122;-47
2021/10/27 03:40:28;;;;;;;29.17;19.42;;;;;;;;;;2087214;28;19982;-47
2021/10/27 03:41:30;;;;;;;28.90;21.38;;;;;;;;;;2088965;28;20440;-47
2021/10/27 03:42:31;;;;;;;30.45;19.75;;;;;;;;;;2089709;28;20451;-47
2021/10/27 03:43:32;;;;;;;27.45;20.33;;;;;;;;;;2087308;28;20060;-47
2021/10/27 03:44:33;;;;;;;26.80;20.10;;;;;;;;;;2088881;28;20041;-48
2021/10/27 03:45:34;;;;;;;29.58;18.98;;;;;;;;;;2089476;28;20045;-47
2021/10/27 03:46:35;;;;;;;27.52;19.92;;;;;;;;;;2087649;28;20049;-46
2021/10/27 03:47:37;;;;;;;32.65;20.90;;;;;;;;;;2089097;28;20057;-47
2021/10/27 03:48:38;;;;;;;28.80;20.00;;;;;;;;;;2089363;28;20048;-47
2021/10/27 03:49:40;;;;;;;25.98;18.55;;;;;;;;;;2087730;28;20045;-48
2021/10/27 03:50:40;;;;;;;34.28;20.55;;;;;;;;;;2088898;28;20448;-47
2021/10/27 03:51:42;;;;;;;33.55;19.33;;;;;;;;;;2087330;28;20107;-47
2021/10/27 03:52:43;;;;;;;32.67;20.48;;;;;;;;;;2088528;28;20128;-47
2021/10/27 03:53:45;;;;;;;31.13;20.40;;;;;;;;;;2089085;28;20484;-48
2021/10/27 03:54:45;;;;;;;28.02;20.75;;;;;;;;;;2089236;28;20053;-48
2021/10/27 03:55:47;;;;;;;35.67;21.73;;;;;;;;;;2087812;28;20486;-46
2021/10/27 03:56:47;;;;;;;34.50;20.10;;;;;;;;;;2088931;28;20136;-47
2021/10/27 03:57:48;;;;;;;34.58;22.17;;;;;;;;;;2088906;28;20274;-47
2021/10/27 03:58:50;;;;;;;31.67;21.25;;;;;;;;;;2088294;28;20051;-50
2021/10/27 03:59:51;;;;;;;31.65;22.25;;;;;;;;;;2090388;28;20136;-47
2021/10/27 04:00:52;;;;;;;31.40;21.80;;;;;;;;;;2088190;28;20056;-48
2021/10/27 04:01:53;;;;;;;32.10;21.98;;;;;;;;;;2090269;28;20056;-48
2021/10/27 04:02:54;;;;;;;30.40;21.42;;;;;;;;;;2088988;28;20080;-47
2021/10/27 04:03:55;;;;;;;35.85;20.83;;;;;;;;;;2087887;28;20045;-47
2021/10/27 04:04:56;;;;;;;33.53;20.85;;;;;;;;;;2090477;28;20129;-46
2021/10/27 04:05:57;;;;;;;33.45;21.05;;;;;;;;;;2090443;28;20055;-47
2021/10/27 04:06:58;;;;;;;33.70;22.10;;;;;;;;;;2087794;28;20045;-48
2021/10/27 04:07:59;;;;;;;34.83;21.52;;;;;;;;;;2090370;28;20053;-47
2021/10/27 04:09:01;;;;;;;32.95;22.15;;;;;;;;;;2090032;28;20132;-49
2021/10/27 04:10:02;;;;;;;32.35;23.90;;;;;;;;;;2088446;28;20049;-47
2021/10/27 04:11:03;;;;;;;32.60;22.95;;;;;;;;;;2090302;28;20144;-47
2021/10/27 04:12:05;;;;;;;30.10;21.20;;;;;;;;;;2090993;28;20414;-48
2021/10/27 04:13:06;;;;;;;34.10;23.58;;;;;;;;;;2087553;28;20080;-48
2021/10/27 04:14:07;;;;;;;32.80;22.53;;;;;;;;;;2090478;28;20560;-48
2021/10/27 04:15:09;;;;;;;34.72;23.33;;;;;;;;;;2089808;28;20060;-48
2021/10/27 04:16:10;;;;;;;39.38;22.90;;;;;;;;;;2088598;28;20649;-47
2021/10/27 04:17:11;;;;;;;34.80;23.60;;;;;;;;;;2090144;28;20053;-47
2021/10/27 04:18:12;;;;;;;32.00;22.42;;;;;;;;;;2090883;28;20056;-51
2021/10/27 04:19:13;;;;;;;31.85;24.23;;;;;;;;;;2088856;28;20100;-48
2021/10/27 04:20:14;;;;;;;33.78;24.00;;;;;;;;;;2090321;28;20448;-47
2021/10/27 04:21:15;;;;;;;31.60;22.65;;;;;;;;;;2089342;28;20053;-49
2021/10/27 04:22:16;;;;;;;30.10;21.30;;;;;;;;;;2088817;28;20132;-50
2021/10/27 04:23:17;;;;;;;32.22;22.75;;;;;;;;;;2090286;28;20049;-50
2021/10/27 04:24:19;;;;;;;39.80;23.13;;;;;;;;;;2088545;28;20143;-49
2021/10/27 04:25:20;;;;;;;34.10;22.88;;;;;;;;;;2089878;28;20059;-49
2021/10/27 04:26:21;;;;;;;32.20;23.00;;;;;;;;;;2090271;28;20049;-51
2021/10/27 04:27:22;;;;;;;29.67;21.95;;;;;;;;;;2087936;28;20282;-49
2021/10/27 04:28:23;;;;;;;33.22;23.67;;;;;;;;;;2090098;28;20136;-50
2021/10/27 04:29:25;;;;;;;34.58;22.48;;;;;;;;;;2090187;28;20584;-50
2021/10/27 04:30:26;;;;;;;31.33;23.15;;;;;;;;;;2090568;28;20127;-49
2021/10/27 04:31:27;;;;;;;33.35;22.17;;;;;;;;;;2089021;28;20525;-49
2021/10/27 04:32:28;;;;;;;34.10;22.52;;;;;;;;;;2090258;28;20053;-49
2021/10/27 04:33:29;;;;;;;36.75;23.63;;;;;;;;;;2087990;28;20489;-49
2021/10/27 04:34:30;;;;;;;35.03;23.05;;;;;;;;;;2090077;28;20484;-49
2021/10/27 04:35:31;;;;;;;32.28;21.35;;;;;;;;;;2090098;28;20049;-50
2021/10/27 04:36:33;;;;;;;31.15;21.13;;;;;;;;;;2087738;28;20463;-49
2021/10/27 04:37:37;;;;;;;29.48;20.48;;;;;;;;;;2090120;28;20049;-50
2021/10/27 04:38:38;;;;;;;34.00;22.35;;;;;;;;;;2089682;28;20048;-52
2021/10/27 04:39:41;;;;;;;31.85;22.20;;;;;;;;;;2088076;28;20445;-49
2021/10/27 04:40:43;;;;;;;35.45;21.95;;;;;;;;;;2089778;28;20049;-48
2021/10/27 04:41:44;;;;;;;30.80;20.23;;;;;;;;;;2089761;28;20136;-48
2021/10/27 04:42:46;;;;;;;32.33;22.60;;;;;;;;;;2088262;28;20642;-49
2021/10/27 04:43:51;;;;;;;29.15;20.65;;;;;;;;;;2090196;28;20052;-49
2021/10/27 04:44:52;;;;;;;41.10;25.10;;;;;;;;;;2089195;28;20509;-49
2021/10/27 04:45:53;;;;;;;42.42;25.98;;;;;;;;;;2088649;28;20182;-52
2021/10/27 04:46:56;;;;;;;39.90;24.83;;;;;;;;;;2090078;28;20452;-51
2021/10/27 04:47:57;;;;;;;34.47;24.27;;;;;;;;;;2090467;28;20132;-48
2021/10/27 04:49:02;;;;;;;36.58;23.33;;;;;;;;;;2088164;28;20041;-51
2021/10/27 04:50:04;;;;;;;30.88;22.92;;;;;;;;;;2090179;28;20044;-51
2021/10/27 04:51:05;;;;;;;33.88;22.80;;;;;;;;;;2087830;28;20148;-48
2021/10/27 04:52:06;;;;;;;31.10;21.95;;;;;;;;;;2089786;28;20449;-48
2021/10/27 04:53:14;;;;;;;30.35;22.02;;;;;;;;;;2090154;28;20053;-49
2021/10/27 04:54:15;;;;;;;32.60;22.58;;;;;;;;;;2089269;28;20436;-50
2021/10/27 04:55:17;;;;;;;30.20;21.45;;;;;;;;;;2089903;28;20460;-51
2021/10/27 04:56:18;;;;;;;36.05;23.58;;;;;;;;;;2089950;28;20133;-49
2021/10/27 04:57:19;;;;;;;34.17;22.85;;;;;;;;;;2087588;28;20056;-48
2021/10/27 04:58:21;;;;;;;30.13;21.73;;;;;;;;;;2089958;28;20095;-53
2021/10/27 04:59:21;;;;;;;30.00;22.20;;;;;;;;;;2090178;28;20079;-49
2021/10/27 05:00:23;;;;;;;34.00;21.38;;;;;;;;;;2088915;28;20143;-49
2021/10/27 05:01:24;;;;;;;28.88;20.40;;;;;;;;;;2090080;28;20124;-49
2021/10/27 05:02:25;;;;;;;32.90;21.60;;;;;;;;;;2090105;28;20080;-49
2021/10/27 05:03:26;;;;;;;30.50;21.35;;;;;;;;;;2087346;28;20450;-51
2021/10/27 05:04:27;;;;;;;35.83;21.30;;;;;;;;;;2089922;28;20048;-49
2021/10/27 05:05:29;;;;;;;32.28;22.30;;;;;;;;;;2090671;28;20140;-49
2021/10/27 05:06:30;;;;;;;29.65;21.63;;;;;;;;;;2088202;28;20046;-50
2021/10/27 05:07:30;;;;;;;31.67;22.15;;;;;;;;;;2089799;28;20523;-51
2021/10/27 05:08:33;;;;;;;30.88;21.15;;;;;;;;;;2089391;28;20052;-49
2021/10/27 05:09:34;;;;;;;34.38;21.42;;;;;;;;;;2088120;28;20519;-50
2021/10/27 05:10:36;;;;;;;33.10;23.03;;;;;;;;;;2089609;28;20059;-52
2021/10/27 05:11:37;;;;;;;33.53;21.02;;;;;;;;;;2090172;28;20281;-49
2021/10/27 05:12:38;;;;;;;31.23;23.17;;;;;;;;;;2088398;28;20483;-50
2021/10/27 05:13:39;;;;;;;35.83;24.75;;;;;;;;;;2089951;28;20044;-49
2021/10/27 05:14:41;;;;;;;33.22;21.77;;;;;;;;;;2088862;28;20549;-49
2021/10/27 05:15:42;;;;;;;35.88;23.30;;;;;;;;;;2088818;28;20073;-48
2021/10/27 05:16:43;;;;;;;46.22;28.30;;;;;;;;;;2090010;28;20056;-49
2021/10/27 05:17:44;;;;;;;34.53;18.58;;;;;;;;;;2088054;28;20059;-49
2021/10/27 05:18:45;;;;;;;37.10;20.73;;;;;;;;;;2089410;28;20045;-49
2021/10/27 05:19:47;;;;;;;32.00;22.45;;;;;;;;;;2089937;28;20474;-50
2021/10/27 05:20:48;;;;;;;29.23;19.90;;;;;;;;;;2087806;28;20045;-48
2021/10/27 05:21:49;;;;;;;39.83;23.70;;;;;;;;;;2089733;28;20071;-50
2021/10/27 05:22:50;;;;;;;34.90;22.35;;;;;;;;;;2089809;28;20080;-50
2021/10/27 05:23:51;;;;;;;49.53;27.40;;;;;;;;;;2087537;28;20595;-50
2021/10/27 05:24:52;;;;;;;43.83;25.37;;;;;;;;;;2089698;28;20065;-51
2021/10/27 05:25:54;;;;;;;53.60;33.60;;;;;;;;;;2090088;28;20478;-49
2021/10/27 05:26:55;;;;;;;33.28;22.13;;;;;;;;;;2089011;28;20045;-49
2021/10/27 05:27:56;;;;;;;39.88;24.13;;;;;;;;;;2089806;28;20417;-48
2021/10/27 05:28:57;;;;;;;32.72;21.80;;;;;;;;;;2090001;28;20123;-49
2021/10/27 05:29:58;;;;;;;34.10;23.97;;;;;;;;;;2088613;28;20490;-49
2021/10/27 05:30:59;;;;;;;37.42;23.73;;;;;;;;;;2089864;28;20536;-51
2021/10/27 05:32:00;;;;;;;39.28;25.40;;;;;;;;;;2089781;28;20521;-51
2021/10/27 05:33:01;;;;;;;42.30;26.58;;;;;;;;;;2087356;28;20057;-48
2021/10/27 05:34:02;;;;;;;43.03;26.08;;;;;;;;;;2089719;28;20460;-48
2021/10/27 05:35:04;;;;;;;34.50;22.80;;;;;;;;;;2089439;28;20131;-48
2021/10/27 05:36:05;;;;;;;38.45;24.65;;;;;;;;;;2087913;28;20053;-49
2021/10/27 05:37:06;;;;;;;41.90;24.50;;;;;;;;;;2089387;28;20132;-47
2021/10/27 05:38:07;;;;;;;35.17;24.83;;;;;;;;;;2090448;28;20343;-50
2021/10/27 05:39:09;;;;;;;34.58;23.75;;;;;;;;;;2086704;28;20171;-48
2021/10/27 05:40:11;;;;;;;33.58;22.48;;;;;;;;;;2089824;28;20049;-49
2021/10/27 05:41:13;;;;;;;36.75;24.02;;;;;;;;;;2089123;28;20578;-48
2021/10/27 05:42:18;;;;;;;35.55;23.67;;;;;;;;;;2087334;28;20076;-51
2021/10/27 05:43:19;;;;;;;36.90;21.70;;;;;;;;;;2089668;28;20143;-49
2021/10/27 05:44:21;;;;;;;37.70;22.50;;;;;;;;;;2088802;28;20076;-48
2021/10/27 05:45:25;;;;;;;37.00;25.35;;;;;;;;;;2088564;28;20056;-50
2021/10/27 05:46:25;;;;;;;36.30;24.30;;;;;;;;;;2089823;28;20498;-49
2021/10/27 05:47:28;;;;;;;38.95;24.52;;;;;;;;;;2089978;28;20303;-51
2021/10/27 05:48:32;;;;;;;55.72;31.90;;;;;;;;;;2088473;28;20136;-49
2021/10/27 05:49:37;;;;;;;44.00;28.42;;;;;;;;;;2089602;28;20055;-49
2021/10/27 05:50:39;;;;;;;49.00;30.08;;;;;;;;;;2087476;28;20505;-48
2021/10/27 05:51:44;;;;;;;36.83;23.52;;;;;;;;;;2081328;28;20491;-49
2021/10/27 05:55:28;;;;;;;31.90;22.23;;;;;;;;;;2089783;28;20053;-49
2021/10/27 05:56:30;;;;;;;29.15;21.58;;;;;;;;;;2089642;28;20044;-48
2021/10/27 05:57:32;;;;;;;28.90;21.85;;;;;;;;;;2088919;28;20159;-49
2021/10/27 05:58:34;;;;;;;31.75;21.23;;;;;;;;;;2089508;28;20573;-49
2021/10/27 05:59:35;;;;;;;32.42;21.70;;;;;;;;;;2087375;28;20038;-49
2021/10/27 06:00:37;;;;;;;31.70;21.98;;;;;;;;;;2089757;28;20426;-51